Christchurch, Virginia
Current Conditions -  °F | °C
As of 8:35 AM on Thursday 30 Oct 2014 (Local Time) from KW75 Reporting Station
Scattered Clouds Scattered Clouds  
Wind Chill: 54°   Ceiling: Unl
Heat Index: 54°   Visibility: 10mi
Dew Point: 49°   Wind: 10mph
Humidity: 85%   Direction: 330°NNW
Pressure: 30.03"   Gusts: NA
Location:  37.6°N, 76.53°W
Report Text: KW75 301235Z AUTO 33009KT 300V360 10SM SCT006 12/10 A3003 RMK AO1 T01210097
Loading
Personal Weather Stations






























Interactive Weather Map
Tropical Storm Tracking
New forecast layout! Learn more

10-Day Weather Forecast

Advertisements
Track Severe Weather on mobile